createdAt,value
2022-11-28T00:01:30.148Z,6.55
2022-11-28T00:03:57.748Z,6.50
2022-11-28T00:06:26.162Z,6.66
2022-11-28T00:08:54.305Z,6.56
2022-11-28T00:11:21.952Z,6.53
2022-11-28T00:13:49.432Z,6.45
2022-11-28T00:16:21.750Z,6.54
2022-11-28T00:18:50.484Z,6.54
2022-11-28T00:21:18.234Z,6.63
2022-11-28T00:23:47.650Z,6.67
2022-11-28T00:26:22.788Z,6.71
2022-11-28T00:28:50.220Z,6.66
2022-11-28T00:31:24.813Z,6.58
2022-11-28T00:33:52.700Z,6.64
2022-11-28T00:36:20.949Z,6.61
2022-11-28T00:38:49.275Z,6.67
2022-11-28T00:41:20.205Z,6.55
2022-11-28T00:43:48.750Z,6.67
2022-11-28T00:46:18.017Z,6.61
2022-11-28T00:48:45.666Z,6.64
2022-11-28T00:51:28.144Z,6.61
2022-11-28T00:53:57.672Z,6.60
2022-11-28T00:56:34.887Z,6.63
2022-11-28T00:59:03.133Z,6.53
2022-11-28T01:01:34.331Z,6.65
2022-11-28T01:04:05.912Z,6.56
2022-11-28T01:06:39.127Z,6.67
2022-11-28T01:09:12.185Z,6.68
2022-11-28T01:11:40.819Z,6.56
2022-11-28T01:14:09.242Z,6.66
2022-11-28T01:16:36.632Z,6.69
2022-11-28T01:19:04.368Z,6.69
2022-11-28T01:21:31.854Z,6.72
2022-11-28T01:24:00.085Z,6.69
2022-11-28T01:26:29.316Z,6.79
2022-11-28T01:28:57.413Z,6.77
2022-11-28T01:31:28.626Z,6.70
2022-11-28T01:33:57.379Z,6.84
2022-11-28T01:36:26.369Z,6.80
2022-11-28T01:38:55.513Z,6.75
2022-11-28T01:41:26.189Z,6.67
2022-11-28T01:44:25.806Z,6.68
2022-11-28T01:46:53.448Z,6.77
2022-11-28T01:49:30.211Z,6.75
2022-11-28T01:52:05.796Z,6.75
2022-11-28T01:54:34.690Z,6.78
2022-11-28T01:57:18.945Z,6.73
2022-11-28T02:00:14.848Z,6.77
2022-11-28T02:02:53.421Z,6.68
2022-11-28T02:05:22.048Z,6.67
2022-11-28T02:07:51.831Z,6.63
2022-11-28T02:10:25.009Z,6.62
2022-11-28T02:13:24.390Z,6.66
2022-11-28T02:16:09.995Z,6.66
2022-11-28T02:18:54.650Z,6.68
2022-11-28T02:21:44.799Z,6.63
2022-11-28T02:24:52.782Z,6.65
2022-11-28T02:27:39.130Z,6.58
2022-11-28T02:30:20.071Z,6.60
2022-11-28T02:32:46.913Z,6.65
2022-11-28T02:35:32.481Z,6.61
2022-11-28T02:38:13.244Z,6.58
2022-11-28T02:40:55.345Z,6.58
2022-11-28T02:43:31.746Z,6.54
2022-11-28T02:46:10.417Z,6.58
2022-11-28T02:48:46.580Z,6.63
2022-11-28T02:51:19.735Z,6.52
2022-11-28T02:53:48.443Z,6.53
2022-11-28T02:56:15.491Z,6.52
2022-11-28T02:58:42.812Z,6.55
2022-11-28T03:01:32.602Z,6.46
2022-11-28T03:04:05.446Z,6.48
2022-11-28T03:06:51.014Z,6.34
2022-11-28T03:09:36.025Z,6.48
2022-11-28T03:12:33.055Z,6.28
2022-11-28T03:15:07.491Z,6.29
2022-11-28T03:17:41.722Z,6.25
2022-11-28T03:20:36.600Z,6.33
2022-11-28T03:23:03.278Z,6.27
2022-11-28T03:25:36.069Z,6.27
2022-11-28T03:28:23.231Z,6.39
2022-11-28T03:31:01.008Z,6.32
2022-11-28T03:33:33.048Z,6.31
2022-11-28T03:36:22.258Z,6.32
2022-11-28T03:38:54.638Z,6.48
2022-11-28T03:41:27.635Z,6.43
2022-11-28T03:43:57.879Z,6.39
2022-11-28T03:46:34.050Z,6.47
2022-11-28T03:49:02.647Z,6.43
2022-11-28T03:51:46.407Z,6.52
2022-11-28T03:54:21.592Z,6.48
2022-11-28T03:57:08.056Z,6.49
2022-11-28T03:59:36.344Z,6.55
2022-11-28T04:02:45.763Z,6.42
2022-11-28T04:05:12.511Z,6.42
2022-11-28T04:07:47.771Z,6.48
2022-11-28T04:10:39.549Z,6.43
2022-11-28T04:13:23.010Z,6.50
2022-11-28T04:16:13.462Z,6.48
2022-11-28T04:19:02.981Z,6.48
2022-11-28T04:21:41.203Z,6.52
2022-11-28T04:24:15.203Z,6.43
2022-11-28T04:26:47.969Z,6.47
2022-11-28T04:29:19.122Z,6.47
2022-11-28T04:31:49.106Z,6.47
2022-11-28T04:34:20.392Z,6.47
2022-11-28T04:36:49.985Z,6.47
2022-11-28T04:39:21.383Z,6.50
2022-11-28T04:41:55.890Z,6.47
2022-11-28T04:44:33.385Z,6.43
2022-11-28T04:47:00.505Z,6.46
2022-11-28T04:49:30.119Z,6.43
2022-11-28T04:52:07.234Z,6.46
2022-11-28T04:54:45.174Z,6.51
2022-11-28T04:57:19.214Z,6.46
2022-11-28T04:59:47.484Z,6.45
2022-11-28T05:02:16.581Z,6.41
2022-11-28T05:04:44.979Z,6.43
2022-11-28T05:07:12.328Z,6.40
2022-11-28T05:09:39.698Z,6.33
2022-11-28T05:12:06.803Z,6.38
2022-11-28T05:14:33.603Z,6.37
2022-11-28T05:17:00.425Z,6.39
2022-11-28T05:19:27.392Z,6.37
2022-11-28T05:21:54.273Z,6.43
2022-11-28T05:24:22.457Z,6.40
2022-11-28T05:26:49.602Z,6.35
2022-11-28T05:29:17.338Z,6.31
2022-11-28T05:31:44.191Z,6.30
2022-11-28T05:34:10.960Z,6.36
2022-11-28T05:36:37.767Z,6.41
2022-11-28T05:39:04.686Z,6.32
2022-11-28T05:41:32.609Z,6.38
2022-11-28T05:44:00.311Z,6.44
2022-11-28T05:46:28.379Z,6.48
2022-11-28T05:48:55.453Z,6.47
2022-11-28T05:51:22.655Z,6.45
2022-11-28T05:53:49.558Z,6.50
2022-11-28T05:56:18.262Z,6.49
2022-11-28T05:58:45.551Z,6.49
2022-11-28T06:01:19.916Z,6.46
2022-11-28T06:03:47.467Z,6.45
2022-11-28T06:06:22.102Z,6.44
2022-11-28T06:08:51.593Z,6.43
2022-11-28T06:11:20.567Z,6.49
2022-11-28T06:13:48.650Z,6.53
2022-11-28T06:16:21.941Z,6.51
2022-11-28T06:18:53.017Z,6.56
2022-11-28T06:21:20.478Z,6.52
2022-11-28T06:23:47.444Z,6.51
2022-11-28T06:26:17.104Z,6.62
2022-11-28T06:28:44.650Z,6.49
2022-11-28T06:31:16.762Z,6.45
2022-11-28T06:33:47.329Z,6.49
2022-11-28T06:36:15.495Z,6.44
2022-11-28T06:38:42.515Z,6.42
2022-11-28T06:41:13.049Z,6.48
2022-11-28T06:43:40.594Z,6.40
2022-11-28T06:46:17.068Z,6.40
2022-11-28T06:48:44.946Z,6.53
2022-11-28T06:51:12.037Z,6.48
2022-11-28T06:53:39.666Z,6.47
2022-11-28T06:56:14.210Z,6.52
2022-11-28T06:58:42.329Z,6.48
2022-11-28T07:01:18.253Z,6.46
2022-11-28T07:03:45.828Z,6.43
2022-11-28T07:06:14.646Z,6.47
2022-11-28T07:08:42.135Z,6.42
2022-11-28T07:11:20.796Z,6.40
2022-11-28T07:13:49.872Z,6.39
2022-11-28T07:16:21.202Z,6.34
2022-11-28T07:18:48.934Z,6.37
2022-11-28T07:21:16.130Z,6.36
2022-11-28T07:23:44.117Z,6.41
2022-11-28T07:26:13.237Z,6.38
2022-11-28T07:28:41.082Z,6.30
2022-11-28T07:31:10.952Z,6.28
2022-11-28T07:33:39.375Z,6.33
2022-11-28T07:36:10.687Z,6.32
2022-11-28T07:38:37.687Z,6.34
2022-11-28T07:41:11.966Z,6.34
2022-11-28T07:43:39.666Z,6.34
2022-11-28T07:46:09.378Z,6.44
2022-11-28T07:48:36.541Z,6.49
2022-11-28T07:51:10.060Z,6.45
2022-11-28T07:53:37.896Z,6.55
2022-11-28T07:56:06.930Z,6.46
2022-11-28T07:58:35.393Z,6.44
2022-11-28T08:01:16.527Z,6.56
2022-11-28T08:03:44.906Z,6.49
2022-11-28T08:06:12.729Z,6.49
2022-11-28T08:08:40.538Z,6.48
2022-11-28T08:11:09.530Z,6.49
2022-11-28T08:13:38.269Z,6.46
2022-11-28T08:16:12.894Z,6.53
2022-11-28T08:18:40.406Z,6.57
2022-11-28T08:21:10.590Z,6.56
2022-11-28T08:23:39.798Z,6.60
2022-11-28T08:26:10.670Z,6.62
2022-11-28T08:28:38.642Z,6.57
2022-11-28T08:31:30.981Z,6.68
2022-11-28T08:34:00.623Z,6.73
2022-11-28T08:36:29.798Z,6.58
2022-11-28T08:41:47.381Z,6.66
2022-11-28T08:44:15.087Z,6.69
2022-11-28T08:46:42.351Z,6.62
2022-11-28T08:49:09.934Z,6.57
2022-11-28T08:51:37.356Z,6.60
2022-11-28T08:54:05.275Z,6.67
2022-11-28T08:56:32.451Z,6.65
2022-11-28T08:59:00.376Z,6.66
2022-11-28T09:01:28.415Z,6.67
2022-11-28T09:03:56.577Z,6.72
2022-11-28T09:06:24.412Z,6.66
2022-11-28T09:08:52.557Z,6.75
2022-11-28T09:11:22.047Z,6.86
2022-11-28T09:13:50.293Z,6.85
2022-11-28T09:16:18.459Z,6.73
2022-11-28T09:18:46.163Z,6.68
2022-11-28T09:21:15.591Z,6.72
2022-11-28T09:23:45.378Z,6.73
2022-11-28T09:26:27.584Z,6.74
2022-11-28T09:28:55.101Z,6.82
2022-11-28T09:31:23.087Z,6.78
2022-11-28T09:33:50.648Z,6.69
2022-11-28T09:36:21.176Z,6.74
2022-11-28T09:38:48.920Z,6.72
2022-11-28T09:41:22.188Z,6.78
2022-11-28T09:43:54.906Z,6.78
2022-11-28T09:46:29.771Z,6.83
2022-11-28T09:49:02.938Z,6.84
2022-11-28T09:51:52.493Z,6.69
2022-11-28T09:54:41.591Z,6.73
2022-11-28T09:57:33.387Z,6.71
2022-11-28T10:00:01.428Z,6.76
2022-11-28T10:02:44.192Z,6.82
2022-11-28T10:05:23.540Z,6.74
2022-11-28T10:08:38.598Z,6.77
2022-11-28T10:11:28.906Z,6.72
2022-11-28T10:14:33.016Z,6.77
2022-11-28T10:17:24.972Z,6.70
2022-11-28T10:19:55.531Z,6.66
2022-11-28T10:22:45.558Z,6.69
2022-11-28T10:25:22.823Z,6.67
2022-11-28T10:27:50.974Z,6.74
2022-11-28T10:30:33.814Z,6.74
2022-11-28T10:33:15.236Z,6.69
2022-11-28T10:35:48.756Z,6.75
2022-11-28T10:38:17.254Z,6.70
2022-11-28T10:40:56.113Z,6.60
2022-11-28T10:43:23.009Z,6.66
2022-11-28T10:46:09.729Z,6.65
2022-11-28T10:48:41.248Z,6.66
2022-11-28T10:51:43.391Z,6.73
2022-11-28T10:54:43.322Z,6.64
2022-11-28T10:58:00.648Z,6.73
2022-11-28T11:00:27.743Z,6.72
2022-11-28T11:02:57.082Z,6.70
2022-11-28T11:05:36.000Z,6.79
2022-11-28T11:08:10.428Z,6.82
2022-11-28T11:10:49.628Z,6.76
2022-11-28T11:13:28.977Z,6.74
2022-11-28T11:16:03.435Z,6.75
2022-11-28T11:18:39.067Z,6.82
2022-11-28T11:21:23.173Z,6.74
2022-11-28T11:24:12.185Z,6.61
2022-11-28T11:26:42.368Z,6.66
2022-11-28T11:29:28.506Z,6.72
2022-11-28T11:31:58.462Z,6.67
2022-11-28T11:34:27.722Z,6.71
2022-11-28T11:37:31.225Z,6.77
2022-11-28T11:40:00.109Z,6.76
2022-11-28T11:42:29.999Z,6.75
2022-11-28T11:45:18.246Z,6.69
2022-11-28T11:47:45.798Z,6.71
2022-11-28T11:50:20.831Z,6.79
2022-11-28T11:53:03.618Z,6.74
2022-11-28T11:55:33.314Z,6.70
2022-11-28T11:58:05.901Z,6.75
2022-11-28T12:00:38.650Z,6.68
2022-11-28T12:03:27.255Z,6.64
2022-11-28T12:06:14.113Z,6.73
2022-11-28T12:09:07.723Z,6.78
2022-11-28T12:11:46.585Z,6.64
2022-11-28T12:14:37.340Z,6.76
2022-11-28T12:17:47.971Z,6.69
2022-11-28T12:20:30.662Z,6.62
2022-11-28T12:23:25.822Z,6.56
2022-11-28T12:26:10.377Z,6.68
2022-11-28T12:29:01.894Z,6.61
2022-11-28T12:31:38.105Z,6.60
2022-11-28T12:34:26.674Z,6.57
2022-11-28T12:37:18.560Z,6.63
2022-11-28T12:39:55.266Z,6.66
2022-11-28T12:42:59.406Z,6.56
2022-11-28T12:45:32.586Z,6.50
2022-11-28T12:48:34.841Z,6.49
2022-11-28T12:51:42.663Z,6.47
2022-11-28T12:54:35.781Z,6.33
2022-11-28T12:57:25.816Z,6.31
2022-11-28T13:00:01.062Z,6.31
2022-11-28T13:02:49.952Z,6.38
2022-11-28T13:05:25.851Z,6.25
2022-11-28T13:08:11.678Z,6.30
2022-11-28T13:10:55.398Z,6.31
2022-11-28T13:13:53.514Z,6.12
2022-11-28T13:16:30.788Z,6.06
2022-11-28T13:18:57.551Z,6.03
2022-11-28T13:21:35.361Z,5.98
2022-11-28T13:24:29.434Z,5.93
2022-11-28T13:27:02.173Z,5.89
2022-11-28T13:29:50.206Z,5.89
2022-11-28T13:32:56.448Z,5.80
2022-11-28T13:35:23.778Z,5.81
2022-11-28T13:40:59.933Z,5.83
2022-11-28T13:43:41.908Z,5.84
2022-11-28T13:46:09.929Z,5.84
2022-11-28T13:51:30.942Z,5.87
2022-11-28T13:54:22.922Z,5.86
2022-11-28T13:57:22.499Z,5.86
2022-11-28T14:00:12.792Z,5.79
2022-11-28T14:02:42.448Z,5.85
2022-11-28T14:05:54.392Z,5.78
2022-11-28T14:08:50.028Z,5.84
2022-11-28T14:11:27.593Z,5.78
2022-11-28T14:14:04.071Z,5.79
2022-11-28T14:16:51.698Z,5.84
2022-11-28T14:19:26.954Z,5.73
2022-11-28T14:22:02.566Z,5.78
2022-11-28T14:24:54.348Z,5.82
2022-11-28T14:27:32.496Z,5.79
2022-11-28T14:30:00.645Z,5.88
2022-11-28T14:32:43.380Z,5.91
2022-11-28T14:35:54.445Z,5.78
2022-11-28T14:38:30.345Z,5.73
2022-11-28T14:40:57.207Z,5.74
2022-11-28T14:43:26.839Z,5.74
2022-11-28T14:46:20.757Z,5.73
2022-11-28T14:49:04.613Z,5.82
2022-11-28T14:52:00.142Z,5.73
2022-11-28T14:54:42.481Z,5.78
2022-11-28T14:57:23.614Z,5.73
2022-11-28T14:59:51.703Z,5.69
2022-11-28T15:02:46.456Z,5.75
2022-11-28T15:05:36.711Z,5.75
2022-11-28T15:08:28.127Z,5.71
2022-11-28T15:11:36.842Z,5.74
2022-11-28T15:14:22.569Z,5.71
2022-11-28T15:16:53.326Z,5.71
2022-11-28T15:19:20.204Z,5.79
2022-11-28T15:21:50.836Z,5.79
2022-11-28T15:24:28.508Z,5.80
2022-11-28T15:26:58.189Z,5.71
2022-11-28T15:29:29.599Z,5.82
2022-11-28T15:31:58.169Z,5.77
2022-11-28T15:34:28.384Z,5.83
2022-11-28T15:36:58.092Z,5.87
2022-11-28T15:39:35.089Z,5.72
2022-11-28T15:42:05.825Z,5.76
2022-11-28T15:44:33.182Z,5.73
2022-11-28T15:47:00.492Z,5.74
2022-11-28T15:49:31.757Z,5.75
2022-11-28T15:52:02.346Z,5.76
2022-11-28T15:54:32.031Z,5.67
2022-11-28T15:57:00.517Z,5.68
2022-11-28T15:59:27.885Z,5.64
2022-11-28T16:02:00.137Z,5.65
2022-11-28T16:04:28.472Z,5.68
2022-11-28T16:06:58.154Z,5.66
2022-11-28T16:09:29.569Z,5.64
2022-11-28T16:11:56.595Z,5.66
2022-11-28T16:14:36.553Z,5.69
2022-11-28T16:17:12.575Z,5.67
2022-11-28T16:19:39.822Z,5.62
2022-11-28T16:22:11.439Z,5.66
2022-11-28T16:24:55.524Z,5.69
2022-11-28T16:27:28.115Z,5.54
2022-11-28T16:29:55.363Z,5.69
2022-11-28T16:32:31.861Z,5.65
2022-11-28T16:35:02.504Z,5.60
2022-11-28T16:37:31.559Z,5.53
2022-11-28T16:40:14.426Z,5.57
2022-11-28T16:42:41.740Z,5.58
2022-11-28T16:45:12.056Z,5.48
2022-11-28T16:47:39.948Z,5.52
2022-11-28T16:50:15.412Z,5.51
2022-11-28T16:52:57.918Z,5.58
2022-11-28T16:55:31.720Z,5.58
2022-11-28T16:58:12.805Z,5.61
2022-11-28T17:00:44.285Z,5.53
2022-11-28T17:03:44.512Z,5.60
2022-11-28T17:06:34.383Z,5.56
2022-11-28T17:09:09.237Z,5.56
2022-11-28T17:11:38.843Z,5.58
2022-11-28T17:14:13.241Z,5.53
2022-11-28T17:16:42.548Z,5.55
2022-11-28T17:19:10.010Z,5.60
2022-11-28T17:21:42.181Z,5.60
2022-11-28T17:24:19.567Z,5.50
2022-11-28T17:26:47.234Z,5.50
2022-11-28T17:29:15.963Z,5.50
2022-11-28T17:31:46.845Z,5.52
2022-11-28T17:34:23.568Z,5.49
2022-11-28T17:36:51.638Z,5.50
2022-11-28T17:39:20.368Z,5.47
2022-11-28T17:41:52.324Z,5.48
2022-11-28T17:47:17.575Z,5.47
2022-11-28T17:49:48.543Z,5.44
2022-11-28T17:55:22.649Z,5.44
2022-11-28T18:00:35.942Z,5.45
2022-11-28T18:03:05.574Z,5.46
2022-11-28T18:05:37.680Z,5.44
2022-11-28T18:08:09.034Z,5.43
2022-11-28T18:10:40.303Z,5.53
2022-11-28T18:13:15.254Z,5.51
2022-11-28T18:15:47.295Z,5.54
2022-11-28T18:18:15.277Z,5.49
2022-11-28T18:20:46.197Z,5.47
2022-11-28T18:23:14.249Z,5.40
2022-11-28T18:28:38.337Z,5.43
2022-11-28T18:31:29.630Z,5.46
2022-11-28T18:34:03.908Z,5.46
2022-11-28T18:36:38.829Z,5.46
2022-11-28T18:39:09.914Z,5.36
2022-11-28T18:41:37.940Z,5.50
2022-11-28T18:44:06.143Z,5.44
2022-11-28T18:46:35.070Z,5.44
2022-11-28T18:49:03.456Z,5.36
2022-11-28T18:51:35.525Z,5.47
2022-11-28T18:54:05.035Z,5.51
2022-11-28T18:56:32.598Z,5.51
2022-11-28T18:59:00.031Z,5.43
2022-11-28T19:01:30.627Z,5.40
2022-11-28T19:04:03.637Z,5.41
2022-11-28T19:06:33.837Z,5.43
2022-11-28T19:09:03.906Z,5.36
2022-11-28T19:11:32.344Z,5.38
2022-11-28T19:14:00.377Z,5.41
2022-11-28T19:16:40.593Z,5.47
2022-11-28T19:19:08.150Z,5.54
2022-11-28T19:21:36.198Z,5.37
2022-11-28T19:24:04.653Z,5.46
2022-11-28T19:26:34.368Z,5.48
2022-11-28T19:29:03.103Z,5.42
2022-11-28T19:31:35.757Z,5.39
2022-11-28T19:34:15.317Z,5.44
2022-11-28T19:36:46.363Z,5.43
2022-11-28T19:39:24.011Z,5.52
2022-11-28T19:41:55.113Z,5.46
2022-11-28T19:44:29.438Z,5.46
2022-11-28T19:47:00.518Z,5.45
2022-11-28T19:49:33.096Z,5.53
2022-11-28T19:52:01.814Z,5.45
2022-11-28T19:54:35.549Z,5.43
2022-11-28T19:57:05.115Z,5.50
2022-11-28T20:08:32.081Z,5.50
2022-11-28T20:11:08.832Z,5.49
2022-11-28T20:19:20.443Z,5.42
2022-11-28T20:22:00.419Z,5.36
2022-11-28T20:39:08.775Z,5.44
2022-11-28T20:47:49.692Z,5.36
2022-11-28T20:50:18.301Z,5.41
2022-11-28T20:52:46.595Z,5.36
2022-11-28T20:55:14.906Z,5.38
2022-11-28T20:57:43.334Z,5.40
2022-11-28T21:00:11.679Z,5.48
2022-11-28T21:02:40.043Z,5.45
2022-11-28T21:05:09.050Z,5.44
2022-11-28T21:07:39.215Z,5.39
2022-11-28T21:10:09.675Z,5.31
2022-11-28T21:12:38.238Z,5.49
2022-11-28T21:15:06.438Z,5.35
2022-11-28T21:17:35.339Z,5.32
2022-11-28T21:20:08.076Z,5.36
2022-11-28T21:22:41.501Z,5.42
2022-11-28T21:28:14.112Z,5.56
2022-11-28T21:31:11.912Z,5.53
2022-11-28T21:33:41.760Z,5.43
2022-11-28T21:36:09.914Z,5.46
2022-11-28T21:38:38.004Z,5.49
2022-11-28T21:43:59.417Z,5.50
2022-11-28T21:46:28.481Z,5.45
2022-11-28T21:48:57.963Z,5.44
2022-11-28T21:51:31.454Z,5.51
2022-11-28T21:54:00.163Z,5.44
2022-11-28T21:56:27.929Z,5.44
2022-11-28T21:58:56.964Z,5.58
2022-11-28T22:01:24.719Z,5.53
2022-11-28T22:03:53.552Z,5.46
2022-11-28T22:06:25.356Z,5.45
2022-11-28T22:08:54.388Z,5.48
2022-11-28T22:11:22.893Z,5.51
2022-11-28T22:13:53.334Z,5.48
2022-11-28T22:16:27.488Z,5.55
2022-11-28T22:18:59.010Z,5.50
2022-11-28T22:24:16.750Z,5.50
2022-11-28T22:26:45.777Z,5.44
2022-11-28T22:29:15.163Z,5.38
2022-11-28T22:31:47.318Z,5.47
2022-11-28T22:34:15.548Z,5.50
2022-11-28T22:36:43.471Z,5.48
2022-11-28T22:39:11.972Z,5.50
2022-11-28T22:41:40.132Z,5.42
2022-11-28T22:44:08.661Z,5.58
2022-11-28T22:46:36.871Z,5.65
2022-11-28T22:49:07.381Z,5.54
2022-11-28T22:51:35.814Z,5.57
2022-11-28T22:54:05.363Z,5.52
2022-11-28T22:56:34.840Z,5.54
2022-11-28T22:59:05.113Z,5.60
2022-11-28T23:01:34.399Z,5.52
2022-11-28T23:04:02.240Z,5.60
2022-11-28T23:06:32.174Z,5.57
2022-11-28T23:09:02.926Z,5.47
2022-11-28T23:11:35.650Z,5.45
2022-11-28T23:14:04.040Z,5.51
2022-11-28T23:16:39.110Z,5.45
2022-11-28T23:19:12.944Z,5.40
2022-11-28T23:21:42.722Z,5.48
2022-11-28T23:24:14.434Z,5.36
2022-11-28T23:26:42.153Z,5.51
2022-11-28T23:29:10.090Z,5.49
2022-11-28T23:31:42.972Z,5.49
2022-11-28T23:34:11.208Z,5.46
2022-11-28T23:36:44.394Z,5.46
2022-11-28T23:39:14.669Z,5.50
2022-11-28T23:41:45.205Z,5.54
2022-11-28T23:44:14.279Z,5.51
2022-11-28T23:46:42.583Z,5.42
2022-11-28T23:49:10.364Z,5.31
2022-11-28T23:51:40.313Z,5.49
2022-11-28T23:54:09.517Z,5.38
2022-11-28T23:56:38.260Z,5.40
2022-11-28T23:59:07.852Z,5.45
